(°C)
(°C)
V
V
V
V
VSV
V
V
(km/h)
18-22
18-23
17-22
15-21
15-21
16-23
16-20
(mm)
0
0
0
0
0
0
0
(%)
21
7
7
14
8
7
14

Výška Slnka nad obzorom

/ -29.6°
sun-icon
UV 1
06:22
18:41
Zmenšujúci sa polmesiac (198°)
19:26
07:35

Správy METAR pre lokalitu 53.5°S 50.15°V (UWWW)

Čas Podmienky Teplota/
Rosný bod
Vietor Viditeľnosť Počasie Oblaky Tlak Zmeniť Nespracované
VFR 9°C / 6°C 120º 6kt >10km - Scattered Clouds 3300ft 1020 No Significant change. Runway 15: Wet or puddles, 51-100% contamination with 1mm, friction coefficient 0.50. UWWW 221800Z 12003MPS 9999 SCT033 09/06 Q1020 R15/290150 NOSIG RMK QFE753/1004
VFR 9°C / 6°C 120º 10kt >10km - Scattered Clouds 3300ft 1019 No Significant change. Runway 15: Wet or puddles, 51-100% contamination with 1mm, friction coefficient 0.50. UWWW 221730Z 12005MPS 9999 SCT033 09/06 Q1019 R15/290150 NOSIG RMK QFE753/1004
VFR 9°C / 6°C 120º 8kt >10km - Scattered Clouds 3300ft 1019 No Significant change. Runway 15: Wet or puddles, 51-100% contamination with 1mm, friction coefficient 0.50. UWWW 221700Z 12004MPS 9999 SCT033 09/06 Q1019 R15/290150 NOSIG RMK QFE753/1004
VFR 9°C / 6°C 130º 12kt >10km - Scattered Clouds 3300ft 1019 No Significant change. Runway 15: Wet or puddles, 51-100% contamination with 1mm, friction coefficient 0.50. UWWW 221630Z 13006MPS 9999 SCT033 09/06 Q1019 R15/290150 NOSIG RMK QFE753/1004
VFR 9°C / 6°C 120º 12kt >10km - Scattered Clouds 3300ft 1019 No Significant change. Runway 15: Wet or puddles, 51-100% contamination with 1mm, friction coefficient 0.50. UWWW 221600Z 12006MPS 9999 SCT033 09/06 Q1019 R15/290150 NOSIG RMK QFE753/1004
VFR 9°C / 7°C 120º 12kt >10km Light Rain 1.00mm precipitation Vertical Visibility of 0ft. 1019 No Significant change. Runway 15: Wet or puddles, 51-100% contamination with 1mm, friction coefficient 0.50. UWWW 221530Z 12006MPS 9999 -RA SCT033 09/07 Q1019 R15/290150 NOSIG RMK QFE752/1003
VFR 9°C / 6°C 130º 10kt >10km Light Rain 1.00mm precipitation Vertical Visibility of 0ft. 1019 No Significant change. Runway 15: Wet or puddles, 51-100% contamination with 1mm, friction coefficient 0.50. UWWW 221500Z 13005MPS 9999 -RA SCT033 09/06 Q1019 R15/290150 NOSIG RMK QFE752/1003
VFR 9°C / 7°C 130º 10kt >10km - Scattered Clouds 3300ft 1018 No Significant change. Runway 15: Wet or puddles, 51-100% contamination with 1mm, friction coefficient 0.50. UWWW 221430Z 13005MPS 9999 SCT033 09/07 Q1018 R15/290150 NOSIG RMK QFE752/1003
VFR 10°C / 6°C 140º 14kt >10km Light Rain 1.00mm precipitation Vertical Visibility of 0ft. 1018 No Significant change. Runway 15: Wet or puddles, 51-100% contamination with 1mm, friction coefficient 0.50. UWWW 221400Z 14007MPS 9999 -RA SCT026 10/06 Q1018 R15/290150 NOSIG RMK QFE752/1003
MVFR 10°C / 7°C 150º 14kt >10km Light Rain 1.00mm precipitation Vertical Visibility of 0ft. 1018 No Significant change. Runway 15: Wet or puddles, 51-100% contamination with 1mm, friction coefficient 0.50. UWWW 221330Z 15007MPS 9999 -RA BKN020 10/07 Q1018 R15/290150 NOSIG RMK QFE752/1003
VFR 10°C / 7°C 140º 12kt >10km - Scattered Clouds 3300ft 1018 No Significant change. Runway 15: Wet or puddles, 51-100% contamination with 1mm, friction coefficient 0.50. UWWW 221300Z 14006MPS 9999 SCT033 10/07 Q1018 R15/290150 NOSIG RMK QFE752/1002
VFR 10°C / 8°C 120º 12kt >10km Light Rain 1.00mm precipitation Vertical Visibility of 0ft. 1018 No Significant change. Runway 15: Wet or puddles, 51-100% contamination with 1mm, friction coefficient 0.50. UWWW 221230Z 12006MPS 9999 -RA SCT026 10/08 Q1018 R15/290150 NOSIG RMK QFE752/1002
VFR 10°C / 8°C 120º 10kt >10km Light Rain 1.00mm precipitation Vertical Visibility of 0ft. 1018 No Significant change. Runway 15: Wet or puddles, 51-100% contamination with 1mm, friction coefficient 0.50. UWWW 221200Z 12005MPS 9999 -RA SCT033 10/08 Q1018 R15/290150 NOSIG RMK QFE752/1002
VFR 10°C / 7°C 120º 10kt >10km Light Rain 1.00mm precipitation Vertical Visibility of 0ft. 1018 No Significant change. Runway 15: Wet or puddles, 51-100% contamination with 1mm, friction coefficient 0.50. UWWW 221130Z 12005MPS 9999 -RA SCT026 10/07 Q1018 R15/290150 NOSIG RMK QFE752/1003
MVFR 10°C / 8°C 130º 8kt >10km Light Rain 1.00mm precipitation Vertical Visibility of 0ft. 1018 No Significant change. Runway 15: Wet or puddles, 51-100% contamination with 1mm, friction coefficient 0.50. UWWW 221100Z 13004MPS 9999 -RA BKN017 10/08 Q1018 R15/290150 NOSIG RMK QFE752/1003
MVFR 10°C / 7°C 150º 10kt >10km Light Rain 1.00mm precipitation Vertical Visibility of 0ft. 1018 No Significant change. Runway 15: Wet or puddles, 51-100% contamination with 1mm, friction coefficient 0.50. UWWW 221030Z 15005MPS 9999 -RA BKN014 10/07 Q1018 R15/290150 NOSIG RMK QFE752/1003
MVFR 10°C / 7°C 150º 10kt >10km Light Rain 1.00mm precipitation Vertical Visibility of 0ft. 1018 No Significant change. Runway 15: Wet or puddles, 51-100% contamination with 1mm, friction coefficient 0.50. UWWW 221000Z 15005MPS 9999 -RA BKN012 10/07 Q1018 R15/290150 NOSIG RMK QFE752/1002
VFR 11°C / 7°C 150º 14kt >10km - Scattered Clouds 2600ft 1017 No Significant change. Runway 15: Wet or puddles, 51-100% contamination with 1mm, friction coefficient 0.50. UWWW 220930Z 15007MPS 9999 SCT026 11/07 Q1017 R15/290150 NOSIG RMK QFE751/1002
VFR 11°C / 8°C 140º 12kt >10km - Scattered Clouds 3300ft 1017 No Significant change. Runway 15: Wet or puddles, 51-100% contamination with 1mm, friction coefficient 0.50. UWWW 220900Z 14006MPS 9999 SCT033 11/08 Q1017 R15/290150 NOSIG RMK QFE751/1002
VFR 10°C / 8°C 140º 12kt >10km Light Rain 1.00mm precipitation Vertical Visibility of 0ft. 1017 No Significant change. Runway 15: Wet or puddles, 51-100% contamination with 1mm, friction coefficient 0.50. UWWW 220830Z 14006MPS 9999 -RA SCT026 10/08 Q1017 R15/290150 NOSIG RMK QFE751/1002
MVFR 10°C / 8°C 150º 12kt >10km Light Rain 1.00mm precipitation Vertical Visibility of 0ft. 1017 No Significant change. Runway 15: Wet or puddles, 51-100% contamination with 1mm, friction coefficient 0.50. UWWW 220800Z 15006MPS 9999 -RA BKN013 10/08 Q1017 R15/290150 NOSIG RMK QFE751/1002
VFR 10°C / 7°C 140º 12kt >10km Light Rain 1.00mm precipitation Vertical Visibility of 0ft. 1017 No Significant change. Runway 15: Wet or puddles, 51-100% contamination with 1mm, friction coefficient 0.50. UWWW 220730Z 14006MPS 9999 -RA SCT026 10/07 Q1017 R15/290150 NOSIG RMK QFE751/1002
VFR 10°C / 6°C 150º 14kt >10km Light Rain 1.00mm precipitation Vertical Visibility of 0ft. 1016 No Significant change. Runway 15: Wet or puddles, 51-100% contamination with 1mm, friction coefficient 0.50. UWWW 220700Z 15007MPS 9999 -RA SCT033 10/06 Q1016 R15/290150 NOSIG RMK QFE751/1001
VFR 10°C / 6°C 140º 14kt >10km Light Rain 1.00mm precipitation Vertical Visibility of 0ft. 1016 No Significant change. Runway 15: Wet or puddles, 51-100% contamination with 1mm, friction coefficient 0.50. UWWW 220630Z 14007MPS 9999 -RA SCT033 10/06 Q1016 R15/290150 NOSIG RMK QFE750/1001

VFR

9°C / 6°C

[Viac]
Vietor 120º 6kt
Viditeľnosť >10km
Počasie -
Oblaky Scattered Clouds 3300ft
Tlak 1020
Zmeniť No Significant change. Runway 15: Wet or puddles, 51-100% contamination with 1mm, friction coefficient 0.50.
Nespracované UWWW 221800Z 12003MPS 9999 SCT033 09/06 Q1020 R15/290150 NOSIG RMK QFE753/1004

VFR

9°C / 6°C

[Viac]
Vietor 120º 10kt
Viditeľnosť >10km
Počasie -
Oblaky Scattered Clouds 3300ft
Tlak 1019
Zmeniť No Significant change. Runway 15: Wet or puddles, 51-100% contamination with 1mm, friction coefficient 0.50.
Nespracované UWWW 221730Z 12005MPS 9999 SCT033 09/06 Q1019 R15/290150 NOSIG RMK QFE753/1004

VFR

9°C / 6°C

[Viac]
Vietor 120º 8kt
Viditeľnosť >10km
Počasie -
Oblaky Scattered Clouds 3300ft
Tlak 1019
Zmeniť No Significant change. Runway 15: Wet or puddles, 51-100% contamination with 1mm, friction coefficient 0.50.
Nespracované UWWW 221700Z 12004MPS 9999 SCT033 09/06 Q1019 R15/290150 NOSIG RMK QFE753/1004

VFR

9°C / 6°C

[Viac]
Vietor 130º 12kt
Viditeľnosť >10km
Počasie -
Oblaky Scattered Clouds 3300ft
Tlak 1019
Zmeniť No Significant change. Runway 15: Wet or puddles, 51-100% contamination with 1mm, friction coefficient 0.50.
Nespracované UWWW 221630Z 13006MPS 9999 SCT033 09/06 Q1019 R15/290150 NOSIG RMK QFE753/1004

VFR

9°C / 6°C

[Viac]
Vietor 120º 12kt
Viditeľnosť >10km
Počasie -
Oblaky Scattered Clouds 3300ft
Tlak 1019
Zmeniť No Significant change. Runway 15: Wet or puddles, 51-100% contamination with 1mm, friction coefficient 0.50.
Nespracované UWWW 221600Z 12006MPS 9999 SCT033 09/06 Q1019 R15/290150 NOSIG RMK QFE753/1004

VFR

9°C / 7°C

[Viac]
Vietor 120º 12kt
Viditeľnosť >10km
Počasie Light Rain 1.00mm precipitation
Oblaky Vertical Visibility of 0ft.
Tlak 1019
Zmeniť No Significant change. Runway 15: Wet or puddles, 51-100% contamination with 1mm, friction coefficient 0.50.
Nespracované UWWW 221530Z 12006MPS 9999 -RA SCT033 09/07 Q1019 R15/290150 NOSIG RMK QFE752/1003

VFR

9°C / 6°C

[Viac]
Vietor 130º 10kt
Viditeľnosť >10km
Počasie Light Rain 1.00mm precipitation
Oblaky Vertical Visibility of 0ft.
Tlak 1019
Zmeniť No Significant change. Runway 15: Wet or puddles, 51-100% contamination with 1mm, friction coefficient 0.50.
Nespracované UWWW 221500Z 13005MPS 9999 -RA SCT033 09/06 Q1019 R15/290150 NOSIG RMK QFE752/1003

VFR

9°C / 7°C

[Viac]
Vietor 130º 10kt
Viditeľnosť >10km
Počasie -
Oblaky Scattered Clouds 3300ft
Tlak 1018
Zmeniť No Significant change. Runway 15: Wet or puddles, 51-100% contamination with 1mm, friction coefficient 0.50.
Nespracované UWWW 221430Z 13005MPS 9999 SCT033 09/07 Q1018 R15/290150 NOSIG RMK QFE752/1003

VFR

10°C / 6°C

[Viac]
Vietor 140º 14kt
Viditeľnosť >10km
Počasie Light Rain 1.00mm precipitation
Oblaky Vertical Visibility of 0ft.
Tlak 1018
Zmeniť No Significant change. Runway 15: Wet or puddles, 51-100% contamination with 1mm, friction coefficient 0.50.
Nespracované UWWW 221400Z 14007MPS 9999 -RA SCT026 10/06 Q1018 R15/290150 NOSIG RMK QFE752/1003

MVFR

10°C / 7°C

[Viac]
Vietor 150º 14kt
Viditeľnosť >10km
Počasie Light Rain 1.00mm precipitation
Oblaky Vertical Visibility of 0ft.
Tlak 1018
Zmeniť No Significant change. Runway 15: Wet or puddles, 51-100% contamination with 1mm, friction coefficient 0.50.
Nespracované UWWW 221330Z 15007MPS 9999 -RA BKN020 10/07 Q1018 R15/290150 NOSIG RMK QFE752/1003

VFR

10°C / 7°C

[Viac]
Vietor 140º 12kt
Viditeľnosť >10km
Počasie -
Oblaky Scattered Clouds 3300ft
Tlak 1018
Zmeniť No Significant change. Runway 15: Wet or puddles, 51-100% contamination with 1mm, friction coefficient 0.50.
Nespracované UWWW 221300Z 14006MPS 9999 SCT033 10/07 Q1018 R15/290150 NOSIG RMK QFE752/1002

VFR

10°C / 8°C

[Viac]
Vietor 120º 12kt
Viditeľnosť >10km
Počasie Light Rain 1.00mm precipitation
Oblaky Vertical Visibility of 0ft.
Tlak 1018
Zmeniť No Significant change. Runway 15: Wet or puddles, 51-100% contamination with 1mm, friction coefficient 0.50.
Nespracované UWWW 221230Z 12006MPS 9999 -RA SCT026 10/08 Q1018 R15/290150 NOSIG RMK QFE752/1002

VFR

10°C / 8°C

[Viac]
Vietor 120º 10kt
Viditeľnosť >10km
Počasie Light Rain 1.00mm precipitation
Oblaky Vertical Visibility of 0ft.
Tlak 1018
Zmeniť No Significant change. Runway 15: Wet or puddles, 51-100% contamination with 1mm, friction coefficient 0.50.
Nespracované UWWW 221200Z 12005MPS 9999 -RA SCT033 10/08 Q1018 R15/290150 NOSIG RMK QFE752/1002

VFR

10°C / 7°C

[Viac]
Vietor 120º 10kt
Viditeľnosť >10km
Počasie Light Rain 1.00mm precipitation
Oblaky Vertical Visibility of 0ft.
Tlak 1018
Zmeniť No Significant change. Runway 15: Wet or puddles, 51-100% contamination with 1mm, friction coefficient 0.50.
Nespracované UWWW 221130Z 12005MPS 9999 -RA SCT026 10/07 Q1018 R15/290150 NOSIG RMK QFE752/1003

MVFR

10°C / 8°C

[Viac]
Vietor 130º 8kt
Viditeľnosť >10km
Počasie Light Rain 1.00mm precipitation
Oblaky Vertical Visibility of 0ft.
Tlak 1018
Zmeniť No Significant change. Runway 15: Wet or puddles, 51-100% contamination with 1mm, friction coefficient 0.50.
Nespracované UWWW 221100Z 13004MPS 9999 -RA BKN017 10/08 Q1018 R15/290150 NOSIG RMK QFE752/1003

MVFR

10°C / 7°C

[Viac]
Vietor 150º 10kt
Viditeľnosť >10km
Počasie Light Rain 1.00mm precipitation
Oblaky Vertical Visibility of 0ft.
Tlak 1018
Zmeniť No Significant change. Runway 15: Wet or puddles, 51-100% contamination with 1mm, friction coefficient 0.50.
Nespracované UWWW 221030Z 15005MPS 9999 -RA BKN014 10/07 Q1018 R15/290150 NOSIG RMK QFE752/1003

MVFR

10°C / 7°C

[Viac]
Vietor 150º 10kt
Viditeľnosť >10km
Počasie Light Rain 1.00mm precipitation
Oblaky Vertical Visibility of 0ft.
Tlak 1018
Zmeniť No Significant change. Runway 15: Wet or puddles, 51-100% contamination with 1mm, friction coefficient 0.50.
Nespracované UWWW 221000Z 15005MPS 9999 -RA BKN012 10/07 Q1018 R15/290150 NOSIG RMK QFE752/1002

VFR

11°C / 7°C

[Viac]
Vietor 150º 14kt
Viditeľnosť >10km
Počasie -
Oblaky Scattered Clouds 2600ft
Tlak 1017
Zmeniť No Significant change. Runway 15: Wet or puddles, 51-100% contamination with 1mm, friction coefficient 0.50.
Nespracované UWWW 220930Z 15007MPS 9999 SCT026 11/07 Q1017 R15/290150 NOSIG RMK QFE751/1002

VFR

11°C / 8°C

[Viac]
Vietor 140º 12kt
Viditeľnosť >10km
Počasie -
Oblaky Scattered Clouds 3300ft
Tlak 1017
Zmeniť No Significant change. Runway 15: Wet or puddles, 51-100% contamination with 1mm, friction coefficient 0.50.
Nespracované UWWW 220900Z 14006MPS 9999 SCT033 11/08 Q1017 R15/290150 NOSIG RMK QFE751/1002

VFR

10°C / 8°C

[Viac]
Vietor 140º 12kt
Viditeľnosť >10km
Počasie Light Rain 1.00mm precipitation
Oblaky Vertical Visibility of 0ft.
Tlak 1017
Zmeniť No Significant change. Runway 15: Wet or puddles, 51-100% contamination with 1mm, friction coefficient 0.50.
Nespracované UWWW 220830Z 14006MPS 9999 -RA SCT026 10/08 Q1017 R15/290150 NOSIG RMK QFE751/1002

MVFR

10°C / 8°C

[Viac]
Vietor 150º 12kt
Viditeľnosť >10km
Počasie Light Rain 1.00mm precipitation
Oblaky Vertical Visibility of 0ft.
Tlak 1017
Zmeniť No Significant change. Runway 15: Wet or puddles, 51-100% contamination with 1mm, friction coefficient 0.50.
Nespracované UWWW 220800Z 15006MPS 9999 -RA BKN013 10/08 Q1017 R15/290150 NOSIG RMK QFE751/1002

VFR

10°C / 7°C

[Viac]
Vietor 140º 12kt
Viditeľnosť >10km
Počasie Light Rain 1.00mm precipitation
Oblaky Vertical Visibility of 0ft.
Tlak 1017
Zmeniť No Significant change. Runway 15: Wet or puddles, 51-100% contamination with 1mm, friction coefficient 0.50.
Nespracované UWWW 220730Z 14006MPS 9999 -RA SCT026 10/07 Q1017 R15/290150 NOSIG RMK QFE751/1002

VFR

10°C / 6°C

[Viac]
Vietor 150º 14kt
Viditeľnosť >10km
Počasie Light Rain 1.00mm precipitation
Oblaky Vertical Visibility of 0ft.
Tlak 1016
Zmeniť No Significant change. Runway 15: Wet or puddles, 51-100% contamination with 1mm, friction coefficient 0.50.
Nespracované UWWW 220700Z 15007MPS 9999 -RA SCT033 10/06 Q1016 R15/290150 NOSIG RMK QFE751/1001

VFR

10°C / 6°C

[Viac]
Vietor 140º 14kt
Viditeľnosť >10km
Počasie Light Rain 1.00mm precipitation
Oblaky Vertical Visibility of 0ft.
Tlak 1016
Zmeniť No Significant change. Runway 15: Wet or puddles, 51-100% contamination with 1mm, friction coefficient 0.50.
Nespracované UWWW 220630Z 14007MPS 9999 -RA SCT033 10/06 Q1016 R15/290150 NOSIG RMK QFE750/1001

Správy TAF pre lokalitu 53.5°S 50.15°V (UWWW)

From till


Maximum Temperature 15ºC on . Minimum Temperature 8ºC on .
From till Wind 110º 12kt. Gust 25kt. Visibility 6000m. Light Rain . Broken Clouds 1600ft.
Temporarly from till Visibility 2000m. Showers Rain Mist . Overcast 500ft. Broken Clouds 1100ft.

Nespracované: TAF UWWW 221653Z 2218/2318 11006G13MPS 6000 -RA BKN016 TX15/2311Z TN08/2301Z TEMPO 2218/2304 2000 SHRA BR OVC005 BKN011CB

Aktuálne satelitné snímky a snímky zrážok pre lokalitu 53.5°S 50.15°V

Značka polohy je umiestnená na53.5°S 50.15°V. [Viac]

Satelitné snímky zhotovované v reálnom čase využívajú viditeľné svetlo počas dňa a infračervené žiarenie počas noci. Vzhľadom na to, že infračervené žiarenie zisťuje teplotné rozdiely, snímka v noci nie je tmavá. Nízke oblaky a hmlu je, žiaľ, ťažké odlíšiť od prízemných teplôt, preto môžu byť počas noci takmer neviditeľné. Meteosat satelitné snímky pre Európu sú aktualizované v reálnom čase každých 5 minút. Snímky z GOES-16/GOES-17 (Severná a Južná Amerika) a Himawari (Ázia) sú aktualizované každých 10 minút.

Copyright 2021 EUMETSAT / meteoblue. / Copyright 2021 meteoblue

Radar a krátkodobá predpoveď zrážok pre 53.5°S 50.15°V

Mrholenie
Slabý
Mierne
Ťažké
Veľmi ťažké
Krúpy

Značka polohy je umiestnená na 53.5°S 50.15°V. Táto animácia ukazuje zrážky pozorované radarom za poslednú hodinu a tiež 1h predpoveď. Mrholenie alebo slabé sneženie môže byť pre radar neviditeľné. Intenzita zrážok je farebne označená od svetlomodrej po oranžovú.